Time;durP1;ratioP1;P1;durP2;ratioP2;P2;SDS_P1;SDS_P2;PMS_P1;PMS_P2;Temp;Humidity;BMP_temperature;BMP_pressure;BME280_temperature;BME280_humidity;BME280_pressure;Samples;Min_cycle;Max_cycle;Signal;HPM_P1;HPM_P2
2022/06/20 07:32:13;;;;;;;2.83;1.42;;;;;;;26.95;35.02;99959.80;1693047;82;21105;-43
2022/06/20 07:34:47;;;;;;;2.92;1.22;;;;;;;27.02;35.19;99965.08;1678260;83;21174;-45
2022/06/20 07:37:31;;;;;;;1.72;1.27;;;;;;;27.07;34.48;99971.48;1702472;83;21044;-40
2022/06/20 07:40:09;;;;;;;17.45;3.15;;;;;;;27.10;34.33;99960.54;1751384;80;21494;-40
2022/06/20 07:42:47;;;;;;;3.10;1.60;;;;;;;27.12;35.23;99943.82;1748249;80;21033;-46
2022/06/20 07:45:19;;;;;;;3.60;1.15;;;;;;;27.23;35.24;99946.56;1717631;80;21112;-42
2022/06/20 07:47:58;;;;;;;1.75;1.25;;;;;;;27.31;34.41;99941.01;1745876;82;20976;-46
2022/06/20 07:50:44;;;;;;;5.37;1.20;;;;;;;27.37;33.99;99932.09;1729602;81;21101;-45
2022/06/20 07:53:42;;;;;;;5.53;1.40;;;;;;;27.43;34.32;99931.66;1747245;80;21504;-42
2022/06/20 08:09:19;;;;;;;2.58;1.00;;;;;;;27.97;31.68;99913.14;1795424;78;23397;-42
2022/06/20 08:12:03;;;;;;;7.55;2.25;;;;;;;27.95;31.75;99912.88;1743488;81;21095;-42
2022/06/20 08:14:59;;;;;;;22.93;4.37;;;;;;;27.93;32.00;99913.00;1717067;81;20988;-42
2022/06/20 08:17:26;;;;;;;5.97;1.87;;;;;;;27.94;32.05;99903.10;1717330;82;21108;-49
2022/06/20 08:19:54;;;;;;;4.55;1.45;;;;;;;27.97;31.79;99898.35;1685341;83;21467;-42
2022/06/20 08:22:35;;;;;;;6.80;2.45;;;;;;;28.04;31.98;99888.82;1711320;83;21583;-49
2022/06/20 08:25:21;;;;;;;16.70;3.47;;;;;;;28.09;31.81;99881.74;1727318;83;20981;-42
2022/06/20 08:28:11;;;;;;;22.37;4.78;;;;;;;28.04;31.86;99878.55;1724843;81;21016;-49
2022/06/20 08:30:46;;;;;;;4.40;1.52;;;;;;;28.02;32.23;99885.90;1720174;83;20997;-42
2022/06/20 08:33:27;;;;;;;8.33;1.30;;;;;;;28.04;31.57;99879.41;1729758;83;21635;-42
2022/06/20 08:36:12;;;;;;;4.62;1.65;;;;;;;28.03;32.41;99880.39;1726307;82;21035;-50
2022/06/20 08:39:04;;;;;;;3.33;1.27;;;;;;;28.10;32.36;99875.38;1724285;81;21626;-42
2022/06/20 08:41:57;;;;;;;2.92;1.17;;;;;;;28.21;32.03;99879.41;1715151;83;21013;-42
2022/06/20 08:44:32;;;;;;;4.08;2.15;;;;;;;28.23;31.71;99874.76;1692222;84;21009;-50
2022/06/20 08:47:17;;;;;;;1.92;1.15;;;;;;;28.26;32.02;99865.12;1684155;85;21128;-43
2022/06/20 08:50:25;;;;;;;4.78;1.05;;;;;;;28.28;30.71;99866.33;1684895;85;20993;-50
2022/06/20 08:53:43;;;;;;;7.97;1.17;;;;;;;28.26;30.62;99858.89;1666434;85;21113;-43
2022/06/20 08:56:48;;;;;;;1.40;1.30;;;;;;;28.22;30.73;99860.95;1651123;86;21031;-42
2022/06/20 08:59:38;;;;;;;4.70;1.15;;;;;;;28.22;30.21;99856.06;1649081;86;21004;-43
2022/06/20 09:02:31;;;;;;;6.35;1.35;;;;;;;28.27;30.78;99848.48;1661380;86;21176;-41
2022/06/20 09:05:26;;;;;;;2.92;1.15;;;;;;;28.36;29.43;99855.37;1649147;86;21544;-49
2022/06/20 09:08:21;;;;;;;1.37;1.05;;;;;;;28.41;30.67;99844.70;1633614;86;21091;-50
2022/06/20 09:11:21;;;;;;;2.45;1.30;;;;;;;28.46;30.48;99842.00;1637852;86;21115;-42
2022/06/20 09:14:28;;;;;;;1.82;1.20;;;;;;;28.55;30.92;99848.48;1642784;85;21082;-50
2022/06/20 09:17:13;;;;;;;5.08;1.17;;;;;;;28.60;30.41;99839.06;1550487;92;21195;-49
2022/06/20 09:19:58;;;;;;;9.35;1.00;;;;;;;28.61;30.37;99841.26;1583940;90;21090;-50
2022/06/20 09:23:00;;;;;;;3.67;1.00;;;;;;;28.58;30.27;99836.97;1564263;91;21078;-50
2022/06/20 09:25:47;;;;;;;1.65;1.12;;;;;;;28.62;30.33;99830.36;1572170;90;21117;-50
2022/06/20 09:28:58;;;;;;;2.92;0.80;;;;;;;28.72;30.46;99825.58;1548309;92;21178;-42
2022/06/20 09:31:52;;;;;;;2.95;0.93;;;;;;;28.80;30.26;99817.70;1563742;91;21110;-50
2022/06/20 09:34:46;;;;;;;7.50;1.22;;;;;;;28.93;29.70;99825.14;1556503;91;21011;-50
2022/06/20 09:37:42;;;;;;;1.10;1.00;;;;;;;28.92;29.11;99811.78;1562924;91;21523;-50
2022/06/20 09:40:23;;;;;;;3.58;1.07;;;;;;;28.91;29.51;99809.59;1538032;92;21054;-43
2022/06/20 09:43:45;;;;;;;2.80;0.95;;;;;;;28.92;30.30;99809.09;1576126;90;21113;-43
2022/06/20 09:46:32;;;;;;;2.57;0.93;;;;;;;28.97;29.97;99797.48;1563532;91;21049;-44
2022/06/20 09:49:48;;;;;;;4.10;1.72;;;;;;;28.99;29.98;99805.81;1578939;90;21101;-49
2022/06/20 09:52:39;;;;;;;4.20;1.50;;;;;;;29.02;29.85;99810.07;1632574;86;21625;-42
2022/06/20 09:55:37;;;;;;;7.75;1.25;;;;;;;29.01;30.19;99794.41;1628484;88;21031;-41
2022/06/20 09:58:16;;;;;;;10.50;1.22;;;;;;;29.06;27.78;99809.69;1625248;87;21111;-49
2022/06/20 10:01:03;;;;;;;3.27;1.10;;;;;;;29.03;27.15;99806.39;1610586;88;21645;-41
2022/06/20 10:04:08;;;;;;;5.87;1.12;;;;;;;28.99;28.83;99812.55;1611335;88;21117;-42
2022/06/20 10:06:58;;;;;;;2.77;1.00;;;;;;;28.98;27.93;99801.38;1595491;88;21631;-41
2022/06/20 10:09:43;;;;;;;1.67;1.15;;;;;;;28.97;27.96;99794.30;1626429;87;21089;-41
2022/06/20 10:12:18;;;;;;;1.47;0.82;;;;;;;28.97;28.10;99800.17;1631495;88;21153;-49
2022/06/20 10:19:21;;;;;;;1.37;1.15;;;;;;;28.98;28.50;99797.34;1642745;86;21092;-41
2022/06/20 10:22:17;;;;;;;1.45;1.05;;;;;;;28.95;28.94;99781.47;1687493;83;21112;-48
2022/06/20 10:25:16;;;;;;;1.30;0.80;;;;;;;28.97;28.84;99779.48;1685032;85;21114;-48
2022/06/20 10:28:12;;;;;;;1.02;0.90;;;;;;;29.02;28.34;99775.92;1622718;86;21098;-42
2022/06/20 10:30:55;;;;;;;11.18;1.45;;;;;;;29.13;28.44;99772.31;1676412;85;21024;-41
2022/06/20 10:33:32;;;;;;;3.27;0.98;;;;;;;29.33;28.74;99770.09;1667983;85;21056;-42
2022/06/20 10:36:07;;;;;;;3.62;1.12;;;;;;;29.51;28.58;99766.80;1696478;84;21059;-49
2022/06/20 10:39:08;;;;;;;1.35;0.80;;;;;;;29.68;28.41;99762.16;1691638;84;21659;-49
2022/06/20 10:41:59;;;;;;;3.08;1.30;;;;;;;29.91;28.22;99760.98;1684580;83;21492;-42
2022/06/20 10:44:43;;;;;;;4.17;1.22;;;;;;;30.16;28.07;99750.25;1705857;82;21107;-49
2022/06/20 10:47:42;;;;;;;1.00;1.00;;;;;;;30.25;28.37;99758.48;1713637;81;21512;-41
2022/06/20 10:50:30;;;;;;;1.62;0.95;;;;;;;30.26;28.12;99756.99;1689232;83;21039;-42
2022/06/20 10:53:17;;;;;;;1.35;0.98;;;;;;;30.23;28.04;99758.64;1684314;85;21463;-41
2022/06/20 10:55:54;;;;;;;2.40;1.00;;;;;;;30.30;28.20;99750.34;1682772;84;21051;-48
2022/06/20 10:58:54;;;;;;;3.77;1.15;;;;;;;30.36;27.83;99747.08;1697258;84;21633;-49
2022/06/20 11:01:42;;;;;;;2.85;1.10;;;;;;;30.43;27.98;99746.02;1692145;83;21048;-49
2022/06/20 11:04:41;;;;;;;0.98;0.98;;;;;;;30.37;27.38;99737.14;1684377;84;21023;-49
2022/06/20 11:07:32;;;;;;;1.95;1.27;;;;;;;30.32;27.72;99737.55;1658656;85;21805;-42
2022/06/20 11:10:22;;;;;;;2.22;1.10;;;;;;;30.30;27.51;99727.91;1684296;85;21711;-49
2022/06/20 11:13:07;;;;;;;1.67;1.07;;;;;;;30.39;27.69;99724.38;1682005;84;21066;-50
2022/06/20 11:16:13;;;;;;;1.47;0.75;;;;;;;30.50;27.85;99722.91;1667782;85;21590;-51
2022/06/20 11:18:54;;;;;;;1.57;0.78;;;;;;;30.56;27.31;99716.94;1664352;86;21662;-50
2022/06/20 11:21:59;;;;;;;0.75;0.75;;;;;;;30.62;25.84;99723.62;1661245;85;21073;-44
2022/06/20 11:24:46;;;;;;;1.77;1.00;;;;;;;30.64;25.73;99719.77;1678035;84;21530;-50
2022/06/20 11:27:35;;;;;;;1.40;1.02;;;;;;;30.58;25.78;99709.54;1684332;85;21112;-50
2022/06/20 11:30:25;;;;;;;1.02;1.00;;;;;;;30.55;26.15;99706.27;1677481;85;21733;-50
2022/06/20 11:33:06;;;;;;;5.55;1.00;;;;;;;30.48;27.37;99703.28;1682106;84;21066;-50
2022/06/20 11:35:53;;;;;;;2.35;1.00;;;;;;;30.48;28.04;99709.53;1683091;84;21087;-50
2022/06/20 11:38:34;;;;;;;0.98;0.70;;;;;;;30.50;27.60;99695.91;1678929;85;21078;-43
2022/06/20 11:41:14;;;;;;;2.85;1.30;;;;;;;30.48;27.42;99704.13;1678372;85;21525;-52
2022/06/20 11:44:06;;;;;;;1.15;1.00;;;;;;;30.39;26.87;99684.76;1665761;86;21159;-52
2022/06/20 11:46:48;;;;;;;4.75;1.20;;;;;;;30.31;27.31;99686.44;1679518;85;21072;-43
2022/06/20 11:49:47;;;;;;;14.47;2.02;;;;;;;30.25;27.26;99692.40;1685558;84;21108;-52
2022/06/20 11:52:36;;;;;;;1.40;1.22;;;;;;;30.17;26.40;99685.87;1656740;85;21144;-44
2022/06/20 11:55:21;;;;;;;4.25;1.20;;;;;;;30.03;27.43;99692.96;1657142;84;21106;-44
2022/06/20 11:58:10;;;;;;;1.92;1.05;;;;;;;29.92;27.61;99685.02;1682724;83;21146;-52
2022/06/20 12:00:48;;;;;;;3.85;1.20;;;;;;;29.90;27.73;99692.38;1697960;84;21102;-52
2022/06/20 12:03:26;;;;;;;1.62;0.95;;;;;;;29.92;28.03;99676.93;1697836;84;21111;-43
2022/06/20 12:06:26;;;;;;;3.00;1.10;;;;;;;29.99;27.96;99682.12;1700545;83;21063;-44
2022/06/20 12:09:11;;;;;;;6.75;1.10;;;;;;;30.06;27.87;99682.41;1694239;84;21594;-44
2022/06/20 12:12:07;;;;;;;1.17;0.82;;;;;;;30.06;27.95;99683.27;1719501;81;21155;-42
2022/06/20 12:14:51;;;;;;;1.22;0.93;;;;;;;30.05;27.65;99686.95;1724913;82;21148;-51
2022/06/20 12:17:36;;;;;;;1.07;0.98;;;;;;;30.05;27.47;99677.52;1726679;82;21566;-51
2022/06/20 12:23:21;;;;;;;1.40;1.10;;;;;;;30.08;27.40;99672.33;1725252;82;21056;-42
2022/06/20 12:25:52;;;;;;;1.72;1.32;;;;;;;30.07;27.46;99662.04;1717910;83;21058;-51
2022/06/20 12:28:34;;;;;;;1.40;1.30;;;;;;;30.12;27.33;99657.61;1677011;85;21615;-44
2022/06/20 12:31:18;;;;;;;1.17;0.90;;;;;;;30.13;26.98;99657.46;1723241;83;21655;-52
2022/06/20 12:33:53;;;;;;;3.10;1.20;;;;;;;30.13;27.30;99672.30;1725264;83;21041;-43
2022/06/20 12:36:43;;;;;;;4.35;1.10;;;;;;;30.19;27.20;99658.25;1728419;81;21124;-43
2022/06/20 12:39:23;;;;;;;1.60;1.00;;;;;;;30.27;27.14;99649.47;1725359;82;21064;-51
2022/06/20 12:41:58;;;;;;;1.45;1.12;;;;;;;30.31;26.49;99648.67;1725239;82;21143;-51
2022/06/20 12:44:51;;;;;;;5.62;1.27;;;;;;;30.37;26.34;99648.95;1724567;83;21082;-43
2022/06/20 12:47:36;;;;;;;1.52;0.88;;;;;;;30.51;26.13;99646.34;1723357;81;21079;-44
2022/06/20 12:50:24;;;;;;;1.77;0.98;;;;;;;30.63;26.45;99634.89;1682988;84;21044;-43
2022/06/20 12:53:17;;;;;;;3.95;1.27;;;;;;;30.76;26.29;99632.77;1685712;85;21088;-52
2022/06/20 12:56:16;;;;;;;1.12;1.00;;;;;;;30.90;26.34;99640.89;1685573;84;21080;-42
2022/06/20 12:58:51;;;;;;;3.05;1.00;;;;;;;30.95;25.44;99628.66;1684940;85;21044;-43
2022/06/20 13:01:42;;;;;;;4.10;1.50;;;;;;;30.86;25.34;99630.91;1685799;85;21079;-43
2022/06/20 13:04:37;;;;;;;3.47;1.80;;;;;;;30.73;26.30;99624.94;1686296;84;21028;-44
2022/06/20 13:07:15;;;;;;;1.22;1.12;;;;;;;30.72;26.34;99617.34;1686335;84;21547;-44
2022/06/20 13:10:00;;;;;;;2.55;1.30;;;;;;;30.80;25.70;99621.19;1685850;85;21622;-44
2022/06/20 13:12:58;;;;;;;3.60;1.70;;;;;;;30.85;26.01;99629.20;1684715;84;21535;-51
2022/06/20 13:16:05;;;;;;;6.37;1.52;;;;;;;30.89;26.08;99629.75;1684350;84;21064;-43
2022/06/20 13:18:55;;;;;;;2.87;1.30;;;;;;;30.91;25.83;99628.63;1683462;85;21582;-52
2022/06/20 13:21:30;;;;;;;1.22;0.98;;;;;;;30.88;25.87;99614.05;1699627;82;21108;-51
2022/06/20 13:24:35;;;;;;;1.90;0.95;;;;;;;30.88;25.81;99613.20;1712758;84;21025;-44
